sensor_id;sensor_type;location;lat;lon;timestamp;temperature;humidity
26821;DHT22;37186;51.394;5.454;2023-04-24T00:02:35;13.30;76.00
26821;DHT22;37186;51.394;5.454;2023-04-24T00:05:38;13.20;75.90
26821;DHT22;37186;51.394;5.454;2023-04-24T00:08:40;13.20;76.00
26821;DHT22;37186;51.394;5.454;2023-04-24T00:11:41;13.20;76.40
26821;DHT22;37186;51.394;5.454;2023-04-24T00:14:41;13.20;75.90
26821;DHT22;37186;51.394;5.454;2023-04-24T00:17:42;13.20;76.20
26821;DHT22;37186;51.394;5.454;2023-04-24T00:20:42;13.20;75.90
26821;DHT22;37186;51.394;5.454;2023-04-24T00:23:44;13.20;77.00
26821;DHT22;37186;51.394;5.454;2023-04-24T00:26:44;13.10;75.90
26821;DHT22;37186;51.394;5.454;2023-04-24T00:29:45;13.10;76.00
26821;DHT22;37186;51.394;5.454;2023-04-24T00:32:46;13.10;75.60
26821;DHT22;37186;51.394;5.454;2023-04-24T00:35:46;13.20;75.90
26821;DHT22;37186;51.394;5.454;2023-04-24T00:38:47;13.10;75.40
26821;DHT22;37186;51.394;5.454;2023-04-24T00:41:48;13.10;75.50
26821;DHT22;37186;51.394;5.454;2023-04-24T00:44:49;13.10;75.80
26821;DHT22;37186;51.394;5.454;2023-04-24T00:47:52;13.10;75.30
26821;DHT22;37186;51.394;5.454;2023-04-24T00:50:53;13.10;75.30
26821;DHT22;37186;51.394;5.454;2023-04-24T00:53:53;13.10;75.40
26821;DHT22;37186;51.394;5.454;2023-04-24T00:56:54;13.10;75.50
26821;DHT22;37186;51.394;5.454;2023-04-24T00:59:55;13.10;75.50
26821;DHT22;37186;51.394;5.454;2023-04-24T01:02:57;13.10;75.70
26821;DHT22;37186;51.394;5.454;2023-04-24T01:05:59;13.10;75.50
26821;DHT22;37186;51.394;5.454;2023-04-24T01:09:00;13.10;76.10
26821;DHT22;37186;51.394;5.454;2023-04-24T01:12:01;13.00;75.80
26821;DHT22;37186;51.394;5.454;2023-04-24T01:15:01;13.00;75.40
26821;DHT22;37186;51.394;5.454;2023-04-24T01:18:03;13.00;75.80
26821;DHT22;37186;51.394;5.454;2023-04-24T01:21:05;13.00;75.80
26821;DHT22;37186;51.394;5.454;2023-04-24T01:24:06;13.00;75.70
26821;DHT22;37186;51.394;5.454;2023-04-24T01:27:09;13.00;75.70
26821;DHT22;37186;51.394;5.454;2023-04-24T01:30:10;13.00;76.20
26821;DHT22;37186;51.394;5.454;2023-04-24T01:33:11;12.90;75.40
26821;DHT22;37186;51.394;5.454;2023-04-24T01:36:12;12.90;75.40
26821;DHT22;37186;51.394;5.454;2023-04-24T01:39:13;12.90;76.20
26821;DHT22;37186;51.394;5.454;2023-04-24T01:42:16;12.90;76.00
26821;DHT22;37186;51.394;5.454;2023-04-24T01:45:17;12.90;76.30
26821;DHT22;37186;51.394;5.454;2023-04-24T01:48:17;12.90;75.40
26821;DHT22;37186;51.394;5.454;2023-04-24T01:51:18;12.90;75.70
26821;DHT22;37186;51.394;5.454;2023-04-24T01:54:19;12.90;75.80
26821;DHT22;37186;51.394;5.454;2023-04-24T01:57:20;12.90;76.00
26821;DHT22;37186;51.394;5.454;2023-04-24T02:00:20;12.90;75.70
26821;DHT22;37186;51.394;5.454;2023-04-24T02:03:21;12.90;75.80
26821;DHT22;37186;51.394;5.454;2023-04-24T02:06:21;12.80;75.90
26821;DHT22;37186;51.394;5.454;2023-04-24T02:09:22;12.80;75.50
26821;DHT22;37186;51.394;5.454;2023-04-24T02:12:23;12.80;75.70
26821;DHT22;37186;51.394;5.454;2023-04-24T02:15:23;12.80;75.90
26821;DHT22;37186;51.394;5.454;2023-04-24T02:18:24;12.80;76.40
26821;DHT22;37186;51.394;5.454;2023-04-24T02:21:24;12.80;75.70
26821;DHT22;37186;51.394;5.454;2023-04-24T02:24:25;12.80;75.90
26821;DHT22;37186;51.394;5.454;2023-04-24T02:27:26;12.80;75.70
26821;DHT22;37186;51.394;5.454;2023-04-24T02:30:26;12.80;76.20
26821;DHT22;37186;51.394;5.454;2023-04-24T02:33:27;12.70;76.10
26821;DHT22;37186;51.394;5.454;2023-04-24T02:36:27;12.70;75.80
26821;DHT22;37186;51.394;5.454;2023-04-24T02:39:28;12.70;75.90
26821;DHT22;37186;51.394;5.454;2023-04-24T02:42:28;12.70;76.40
26821;DHT22;37186;51.394;5.454;2023-04-24T02:45:29;12.70;76.40
26821;DHT22;37186;51.394;5.454;2023-04-24T02:48:30;12.70;75.90
26821;DHT22;37186;51.394;5.454;2023-04-24T02:51:30;12.70;75.60
26821;DHT22;37186;51.394;5.454;2023-04-24T02:54:31;12.70;76.00
26821;DHT22;37186;51.394;5.454;2023-04-24T02:57:31;12.60;76.40
26821;DHT22;37186;51.394;5.454;2023-04-24T03:00:32;12.60;76.20
26821;DHT22;37186;51.394;5.454;2023-04-24T03:03:33;12.70;76.40
26821;DHT22;37186;51.394;5.454;2023-04-24T03:06:33;12.60;76.00
26821;DHT22;37186;51.394;5.454;2023-04-24T03:09:35;12.60;75.60
26821;DHT22;37186;51.394;5.454;2023-04-24T03:12:36;12.60;75.70
26821;DHT22;37186;51.394;5.454;2023-04-24T03:15:36;12.60;75.70
26821;DHT22;37186;51.394;5.454;2023-04-24T03:18:37;12.60;76.40
26821;DHT22;37186;51.394;5.454;2023-04-24T03:21:38;12.60;75.90
26821;DHT22;37186;51.394;5.454;2023-04-24T03:24:40;12.60;75.90
26821;DHT22;37186;51.394;5.454;2023-04-24T03:27:41;12.60;76.00
26821;DHT22;37186;51.394;5.454;2023-04-24T03:30:41;12.60;76.50
26821;DHT22;37186;51.394;5.454;2023-04-24T03:33:42;12.50;76.20
26821;DHT22;37186;51.394;5.454;2023-04-24T03:36:43;12.50;76.10
26821;DHT22;37186;51.394;5.454;2023-04-24T03:39:43;12.50;75.80
26821;DHT22;37186;51.394;5.454;2023-04-24T03:42:44;12.50;76.00
26821;DHT22;37186;51.394;5.454;2023-04-24T03:45:44;12.50;75.70
26821;DHT22;37186;51.394;5.454;2023-04-24T03:48:45;12.50;75.90
26821;DHT22;37186;51.394;5.454;2023-04-24T03:51:46;12.50;76.00
26821;DHT22;37186;51.394;5.454;2023-04-24T03:54:46;12.50;75.90
26821;DHT22;37186;51.394;5.454;2023-04-24T03:57:47;12.50;75.70
26821;DHT22;37186;51.394;5.454;2023-04-24T04:00:47;12.50;76.40
26821;DHT22;37186;51.394;5.454;2023-04-24T04:03:48;12.50;76.10
26821;DHT22;37186;51.394;5.454;2023-04-24T04:06:48;12.50;76.20
26821;DHT22;37186;51.394;5.454;2023-04-24T04:09:49;12.40;75.90
26821;DHT22;37186;51.394;5.454;2023-04-24T04:12:49;12.40;76.10
26821;DHT22;37186;51.394;5.454;2023-04-24T04:15:50;12.40;75.90
26821;DHT22;37186;51.394;5.454;2023-04-24T04:18:50;12.40;76.30
26821;DHT22;37186;51.394;5.454;2023-04-24T04:21:51;12.40;76.10
26821;DHT22;37186;51.394;5.454;2023-04-24T04:24:53;12.40;76.20
26821;DHT22;37186;51.394;5.454;2023-04-24T04:27:54;12.40;75.90
26821;DHT22;37186;51.394;5.454;2023-04-24T04:30:54;12.40;76.00
26821;DHT22;37186;51.394;5.454;2023-04-24T04:33:55;12.40;76.30
26821;DHT22;37186;51.394;5.454;2023-04-24T04:36:56;12.30;75.60
26821;DHT22;37186;51.394;5.454;2023-04-24T04:39:57;12.30;76.00
26821;DHT22;37186;51.394;5.454;2023-04-24T04:42:58;12.40;76.70
26821;DHT22;37186;51.394;5.454;2023-04-24T04:45:59;12.30;75.70
26821;DHT22;37186;51.394;5.454;2023-04-24T04:49:01;12.30;75.90
26821;DHT22;37186;51.394;5.454;2023-04-24T04:52:03;12.30;76.10
26821;DHT22;37186;51.394;5.454;2023-04-24T04:55:03;12.30;76.40
26821;DHT22;37186;51.394;5.454;2023-04-24T04:58:05;12.30;76.30
26821;DHT22;37186;51.394;5.454;2023-04-24T05:01:06;12.30;76.40
26821;DHT22;37186;51.394;5.454;2023-04-24T05:04:07;12.30;76.20
26821;DHT22;37186;51.394;5.454;2023-04-24T05:07:08;12.20;76.40
26821;DHT22;37186;51.394;5.454;2023-04-24T05:10:08;12.20;76.60
26821;DHT22;37186;51.394;5.454;2023-04-24T05:13:09;12.20;76.40
26821;DHT22;37186;51.394;5.454;2023-04-24T05:16:10;12.20;76.70
26821;DHT22;37186;51.394;5.454;2023-04-24T05:19:10;12.20;76.70
26821;DHT22;37186;51.394;5.454;2023-04-24T05:22:12;12.20;76.40
26821;DHT22;37186;51.394;5.454;2023-04-24T05:25:12;12.10;76.50
26821;DHT22;37186;51.394;5.454;2023-04-24T05:28:13;12.10;76.70
26821;DHT22;37186;51.394;5.454;2023-04-24T05:31:13;12.10;76.70
26821;DHT22;37186;51.394;5.454;2023-04-24T05:34:14;12.10;76.90
26821;DHT22;37186;51.394;5.454;2023-04-24T05:37:16;12.00;76.60
26821;DHT22;37186;51.394;5.454;2023-04-24T05:40:16;12.00;77.20
26821;DHT22;37186;51.394;5.454;2023-04-24T05:43:17;12.00;77.10
26821;DHT22;37186;51.394;5.454;2023-04-24T05:46:18;11.90;76.90
26821;DHT22;37186;51.394;5.454;2023-04-24T05:49:18;11.90;77.40
26821;DHT22;37186;51.394;5.454;2023-04-24T05:52:19;11.90;77.00
26821;DHT22;37186;51.394;5.454;2023-04-24T05:55:20;11.90;76.90
26821;DHT22;37186;51.394;5.454;2023-04-24T05:58:20;11.90;77.20
26821;DHT22;37186;51.394;5.454;2023-04-24T06:01:21;11.80;77.10
26821;DHT22;37186;51.394;5.454;2023-04-24T06:04:21;11.80;77.50
26821;DHT22;37186;51.394;5.454;2023-04-24T06:07:22;11.80;77.30
26821;DHT22;37186;51.394;5.454;2023-04-24T06:10:22;11.70;77.10
26821;DHT22;37186;51.394;5.454;2023-04-24T06:13:23;11.70;76.70
26821;DHT22;37186;51.394;5.454;2023-04-24T06:16:23;11.70;77.90
26821;DHT22;37186;51.394;5.454;2023-04-24T06:19:24;11.70;77.30
26821;DHT22;37186;51.394;5.454;2023-04-24T06:22:24;11.60;77.20
26821;DHT22;37186;51.394;5.454;2023-04-24T06:25:25;11.60;77.30
26821;DHT22;37186;51.394;5.454;2023-04-24T06:28:27;11.60;77.30
26821;DHT22;37186;51.394;5.454;2023-04-24T06:31:27;11.60;77.40
26821;DHT22;37186;51.394;5.454;2023-04-24T06:34:28;11.50;78.30
26821;DHT22;37186;51.394;5.454;2023-04-24T06:37:29;11.50;78.10
26821;DHT22;37186;51.394;5.454;2023-04-24T06:40:29;11.50;78.20
26821;DHT22;37186;51.394;5.454;2023-04-24T06:43:33;11.40;79.10
26821;DHT22;37186;51.394;5.454;2023-04-24T06:46:34;11.40;78.80
26821;DHT22;37186;51.394;5.454;2023-04-24T06:49:36;11.40;79.00
26821;DHT22;37186;51.394;5.454;2023-04-24T06:52:37;11.30;79.20
26821;DHT22;37186;51.394;5.454;2023-04-24T06:55:37;11.30;79.10
26821;DHT22;37186;51.394;5.454;2023-04-24T06:58:38;11.30;79.80
26821;DHT22;37186;51.394;5.454;2023-04-24T07:01:38;11.30;80.00
26821;DHT22;37186;51.394;5.454;2023-04-24T07:04:39;11.20;81.00
26821;DHT22;37186;51.394;5.454;2023-04-24T07:07:40;11.20;80.60
26821;DHT22;37186;51.394;5.454;2023-04-24T07:10:40;11.10;80.00
26821;DHT22;37186;51.394;5.454;2023-04-24T07:13:41;11.10;79.70
26821;DHT22;37186;51.394;5.454;2023-04-24T07:16:44;11.10;80.10
26821;DHT22;37186;51.394;5.454;2023-04-24T07:19:45;11.10;80.00
26821;DHT22;37186;51.394;5.454;2023-04-24T07:22:46;11.10;80.00
26821;DHT22;37186;51.394;5.454;2023-04-24T07:25:46;11.10;79.50
26821;DHT22;37186;51.394;5.454;2023-04-24T07:28:47;11.10;80.10
26821;DHT22;37186;51.394;5.454;2023-04-24T07:31:47;11.10;80.70
26821;DHT22;37186;51.394;5.454;2023-04-24T07:34:48;11.10;80.60
26821;DHT22;37186;51.394;5.454;2023-04-24T07:37:48;11.10;81.10
26821;DHT22;37186;51.394;5.454;2023-04-24T07:40:49;11.00;80.30
26821;DHT22;37186;51.394;5.454;2023-04-24T07:43:50;11.00;80.80
26821;DHT22;37186;51.394;5.454;2023-04-24T07:46:51;11.00;80.70
26821;DHT22;37186;51.394;5.454;2023-04-24T07:49:51;11.00;80.40
26821;DHT22;37186;51.394;5.454;2023-04-24T07:52:52;11.00;80.40
26821;DHT22;37186;51.394;5.454;2023-04-24T07:55:54;11.00;81.00
26821;DHT22;37186;51.394;5.454;2023-04-24T07:58:55;11.00;80.30
26821;DHT22;37186;51.394;5.454;2023-04-24T08:01:56;11.00;81.30
26821;DHT22;37186;51.394;5.454;2023-04-24T08:04:56;11.00;80.10
26821;DHT22;37186;51.394;5.454;2023-04-24T08:07:57;10.90;80.00
26821;DHT22;37186;51.394;5.454;2023-04-24T08:10:57;10.90;80.60
26821;DHT22;37186;51.394;5.454;2023-04-24T08:13:58;10.90;80.30
26821;DHT22;37186;51.394;5.454;2023-04-24T08:16:58;10.90;80.50
26821;DHT22;37186;51.394;5.454;2023-04-24T08:20:01;10.90;80.40
26821;DHT22;37186;51.394;5.454;2023-04-24T08:23:02;10.90;80.50
26821;DHT22;37186;51.394;5.454;2023-04-24T08:26:02;10.90;80.50
26821;DHT22;37186;51.394;5.454;2023-04-24T08:29:04;10.90;80.90
26821;DHT22;37186;51.394;5.454;2023-04-24T08:32:04;10.90;81.80
26821;DHT22;37186;51.394;5.454;2023-04-24T08:35:06;10.90;81.40
26821;DHT22;37186;51.394;5.454;2023-04-24T08:38:08;10.90;81.10
26821;DHT22;37186;51.394;5.454;2023-04-24T08:41:09;10.90;80.90
26821;DHT22;37186;51.394;5.454;2023-04-24T08:44:10;10.90;80.50
26821;DHT22;37186;51.394;5.454;2023-04-24T08:47:12;10.90;81.30
26821;DHT22;37186;51.394;5.454;2023-04-24T08:50:12;11.00;81.70
26821;DHT22;37186;51.394;5.454;2023-04-24T08:53:13;10.90;80.90
26821;DHT22;37186;51.394;5.454;2023-04-24T08:56:14;10.90;81.20
26821;DHT22;37186;51.394;5.454;2023-04-24T08:59:16;11.00;81.50
26821;DHT22;37186;51.394;5.454;2023-04-24T09:02:17;11.00;80.90
26821;DHT22;37186;51.394;5.454;2023-04-24T09:05:18;11.00;81.20
26821;DHT22;37186;51.394;5.454;2023-04-24T09:08:19;11.00;80.70
26821;DHT22;37186;51.394;5.454;2023-04-24T09:11:20;11.10;81.60
26821;DHT22;37186;51.394;5.454;2023-04-24T09:14:21;11.10;81.00
26821;DHT22;37186;51.394;5.454;2023-04-24T09:17:24;11.10;81.00
26821;DHT22;37186;51.394;5.454;2023-04-24T09:20:27;11.10;81.00
26821;DHT22;37186;51.394;5.454;2023-04-24T09:23:29;11.10;81.50
26821;DHT22;37186;51.394;5.454;2023-04-24T09:26:31;11.00;81.00
26821;DHT22;37186;51.394;5.454;2023-04-24T09:29:32;11.10;81.00
26821;DHT22;37186;51.394;5.454;2023-04-24T09:32:33;11.10;81.10
26821;DHT22;37186;51.394;5.454;2023-04-24T09:35:34;11.10;80.60
26821;DHT22;37186;51.394;5.454;2023-04-24T09:38:36;11.10;80.60
26821;DHT22;37186;51.394;5.454;2023-04-24T09:41:51;11.20;80.90
26821;DHT22;37186;51.394;5.454;2023-04-24T09:44:52;11.20;80.80
26821;DHT22;37186;51.394;5.454;2023-04-24T09:47:53;11.10;80.60
26821;DHT22;37186;51.394;5.454;2023-04-24T09:50:54;11.20;80.20
26821;DHT22;37186;51.394;5.454;2023-04-24T09:53:54;11.20;80.50
26821;DHT22;37186;51.394;5.454;2023-04-24T09:56:55;11.20;80.60
26821;DHT22;37186;51.394;5.454;2023-04-24T09:59:57;11.20;80.60
26821;DHT22;37186;51.394;5.454;2023-04-24T10:02:59;11.20;80.90
26821;DHT22;37186;51.394;5.454;2023-04-24T10:06:02;11.20;80.60
26821;DHT22;37186;51.394;5.454;2023-04-24T10:09:03;11.30;80.80
26821;DHT22;37186;51.394;5.454;2023-04-24T10:12:04;11.30;80.50
26821;DHT22;37186;51.394;5.454;2023-04-24T10:15:05;11.40;80.40
26821;DHT22;37186;51.394;5.454;2023-04-24T10:18:07;11.40;80.60
26821;DHT22;37186;51.394;5.454;2023-04-24T10:21:09;11.40;80.20
26821;DHT22;37186;51.394;5.454;2023-04-24T10:24:10;11.50;79.90
26821;DHT22;37186;51.394;5.454;2023-04-24T10:27:12;11.40;79.30
26821;DHT22;37186;51.394;5.454;2023-04-24T10:30:16;11.40;79.30
26821;DHT22;37186;51.394;5.454;2023-04-24T10:33:17;11.40;79.30
26821;DHT22;37186;51.394;5.454;2023-04-24T10:36:18;11.50;79.80
26821;DHT22;37186;51.394;5.454;2023-04-24T10:39:22;11.50;79.50
26821;DHT22;37186;51.394;5.454;2023-04-24T10:42:23;11.50;79.50
26821;DHT22;37186;51.394;5.454;2023-04-24T10:45:25;11.50;79.30
26821;DHT22;37186;51.394;5.454;2023-04-24T10:48:27;11.50;78.90
26821;DHT22;37186;51.394;5.454;2023-04-24T10:51:45;11.50;78.70
26821;DHT22;37186;51.394;5.454;2023-04-24T10:54:48;11.50;78.70
26821;DHT22;37186;51.394;5.454;2023-04-24T10:58:05;11.50;78.50
26821;DHT22;37186;51.394;5.454;2023-04-24T11:01:06;11.60;77.60
26821;DHT22;37186;51.394;5.454;2023-04-24T11:04:07;11.50;78.00
26821;DHT22;37186;51.394;5.454;2023-04-24T11:07:09;11.50;78.10
26821;DHT22;37186;51.394;5.454;2023-04-24T11:10:27;11.50;77.90
26821;DHT22;37186;51.394;5.454;2023-04-24T11:14:01;11.50;78.10
26821;DHT22;37186;51.394;5.454;2023-04-24T11:17:02;11.60;77.70
26821;DHT22;37186;51.394;5.454;2023-04-24T11:20:10;11.60;77.60
26821;DHT22;37186;51.394;5.454;2023-04-24T11:23:13;11.60;77.70
26821;DHT22;37186;51.394;5.454;2023-04-24T11:26:23;11.60;77.80
26821;DHT22;37186;51.394;5.454;2023-04-24T11:30:05;11.60;77.90
26821;DHT22;37186;51.394;5.454;2023-04-24T11:33:05;11.60;78.00
26821;DHT22;37186;51.394;5.454;2023-04-24T11:36:07;11.70;77.80
26821;DHT22;37186;51.394;5.454;2023-04-24T11:39:07;11.70;77.30
26821;DHT22;37186;51.394;5.454;2023-04-24T11:42:09;11.70;76.40
26821;DHT22;37186;51.394;5.454;2023-04-24T11:45:16;11.70;76.70
26821;DHT22;37186;51.394;5.454;2023-04-24T11:48:20;11.80;77.00
26821;DHT22;37186;51.394;5.454;2023-04-24T11:51:22;11.80;76.60
26821;DHT22;37186;51.394;5.454;2023-04-24T11:54:23;11.70;76.80
26821;DHT22;37186;51.394;5.454;2023-04-24T11:57:25;11.80;76.60
26821;DHT22;37186;51.394;5.454;2023-04-24T12:00:30;11.80;77.60
26821;DHT22;37186;51.394;5.454;2023-04-24T12:03:31;11.80;76.80
26821;DHT22;37186;51.394;5.454;2023-04-24T12:06:32;11.90;76.70
26821;DHT22;37186;51.394;5.454;2023-04-24T12:09:45;11.90;76.80
26821;DHT22;37186;51.394;5.454;2023-04-24T12:12:46;11.90;76.70
26821;DHT22;37186;51.394;5.454;2023-04-24T12:15:47;12.00;77.40
26821;DHT22;37186;51.394;5.454;2023-04-24T12:18:47;12.10;76.60
26821;DHT22;37186;51.394;5.454;2023-04-24T12:22:06;12.10;75.70
26821;DHT22;37186;51.394;5.454;2023-04-24T12:25:10;12.20;74.90
26821;DHT22;37186;51.394;5.454;2023-04-24T12:28:12;12.20;75.50
26821;DHT22;37186;51.394;5.454;2023-04-24T12:31:13;12.20;75.00
26821;DHT22;37186;51.394;5.454;2023-04-24T12:34:21;12.20;74.30
26821;DHT22;37186;51.394;5.454;2023-04-24T12:37:26;12.20;74.90
26821;DHT22;37186;51.394;5.454;2023-04-24T12:40:26;12.20;74.40
26821;DHT22;37186;51.394;5.454;2023-04-24T12:43:27;12.20;74.60
26821;DHT22;37186;51.394;5.454;2023-04-24T12:46:27;12.20;74.90
26821;DHT22;37186;51.394;5.454;2023-04-24T12:49:30;12.20;74.40
26821;DHT22;37186;51.394;5.454;2023-04-24T12:52:31;12.20;73.70
26821;DHT22;37186;51.394;5.454;2023-04-24T12:55:33;12.20;74.30
26821;DHT22;37186;51.394;5.454;2023-04-24T12:58:33;12.20;74.90
26821;DHT22;37186;51.394;5.454;2023-04-24T13:01:35;12.20;74.70
26821;DHT22;37186;51.394;5.454;2023-04-24T13:04:36;12.20;74.60
26821;DHT22;37186;51.394;5.454;2023-04-24T13:07:36;12.30;74.10
26821;DHT22;37186;51.394;5.454;2023-04-24T13:10:37;12.30;73.80
26821;DHT22;37186;51.394;5.454;2023-04-24T13:13:38;12.30;74.40
26821;DHT22;37186;51.394;5.454;2023-04-24T13:16:38;12.30;74.70
26821;DHT22;37186;51.394;5.454;2023-04-24T13:19:43;12.30;75.10
26821;DHT22;37186;51.394;5.454;2023-04-24T13:22:43;12.30;75.10
26821;DHT22;37186;51.394;5.454;2023-04-24T13:25:44;12.40;74.70
26821;DHT22;37186;51.394;5.454;2023-04-24T13:28:44;12.40;74.60
26821;DHT22;37186;51.394;5.454;2023-04-24T13:31:50;12.40;74.80
26821;DHT22;37186;51.394;5.454;2023-04-24T13:34:51;12.50;74.80
26821;DHT22;37186;51.394;5.454;2023-04-24T13:37:52;12.50;74.90
26821;DHT22;37186;51.394;5.454;2023-04-24T13:40:52;12.50;74.80
26821;DHT22;37186;51.394;5.454;2023-04-24T13:43:53;12.50;74.80
26821;DHT22;37186;51.394;5.454;2023-04-24T13:46:54;12.60;74.60
26821;DHT22;37186;51.394;5.454;2023-04-24T13:49:57;12.60;74.60
26821;DHT22;37186;51.394;5.454;2023-04-24T13:52:57;12.60;74.70
26821;DHT22;37186;51.394;5.454;2023-04-24T13:56:00;12.70;74.20
26821;DHT22;37186;51.394;5.454;2023-04-24T13:59:00;12.70;73.90
26821;DHT22;37186;51.394;5.454;2023-04-24T14:02:01;12.70;74.00
26821;DHT22;37186;51.394;5.454;2023-04-24T14:05:02;12.70;73.90
26821;DHT22;37186;51.394;5.454;2023-04-24T14:08:03;12.80;74.00
26821;DHT22;37186;51.394;5.454;2023-04-24T14:11:04;12.80;73.50
26821;DHT22;37186;51.394;5.454;2023-04-24T14:14:05;12.80;74.20
26821;DHT22;37186;51.394;5.454;2023-04-24T14:17:05;12.80;73.50
26821;DHT22;37186;51.394;5.454;2023-04-24T14:20:07;12.90;73.30
26821;DHT22;37186;51.394;5.454;2023-04-24T14:23:08;12.90;73.50
26821;DHT22;37186;51.394;5.454;2023-04-24T14:26:08;12.90;73.20
26821;DHT22;37186;51.394;5.454;2023-04-24T14:29:09;12.90;73.50
26821;DHT22;37186;51.394;5.454;2023-04-24T14:32:10;13.00;73.30
26821;DHT22;37186;51.394;5.454;2023-04-24T14:35:10;13.00;73.20
26821;DHT22;37186;51.394;5.454;2023-04-24T14:38:11;13.00;73.20
26821;DHT22;37186;51.394;5.454;2023-04-24T14:41:11;13.00;73.30
26821;DHT22;37186;51.394;5.454;2023-04-24T14:44:12;13.00;72.90
26821;DHT22;37186;51.394;5.454;2023-04-24T14:47:12;13.00;73.30
26821;DHT22;37186;51.394;5.454;2023-04-24T14:50:13;13.00;73.20
26821;DHT22;37186;51.394;5.454;2023-04-24T14:53:14;12.90;73.40
26821;DHT22;37186;51.394;5.454;2023-04-24T14:56:15;12.90;73.30
26821;DHT22;37186;51.394;5.454;2023-04-24T14:59:16;12.80;73.30
26821;DHT22;37186;51.394;5.454;2023-04-24T15:02:16;12.80;73.20
26821;DHT22;37186;51.394;5.454;2023-04-24T15:05:17;12.80;73.20
26821;DHT22;37186;51.394;5.454;2023-04-24T15:08:17;12.80;72.80
26821;DHT22;37186;51.394;5.454;2023-04-24T15:11:18;12.80;73.20
26821;DHT22;37186;51.394;5.454;2023-04-24T15:14:18;12.80;73.00
26821;DHT22;37186;51.394;5.454;2023-04-24T15:17:19;12.90;73.50
26821;DHT22;37186;51.394;5.454;2023-04-24T15:20:19;12.90;72.90
26821;DHT22;37186;51.394;5.454;2023-04-24T15:23:20;12.90;74.00
26821;DHT22;37186;51.394;5.454;2023-04-24T15:26:22;13.00;72.70
26821;DHT22;37186;51.394;5.454;2023-04-24T15:29:23;13.10;73.20
26821;DHT22;37186;51.394;5.454;2023-04-24T15:32:23;13.10;73.60
26821;DHT22;37186;51.394;5.454;2023-04-24T15:35:24;13.20;73.30
26821;DHT22;37186;51.394;5.454;2023-04-24T15:38:25;13.30;72.20
26821;DHT22;37186;51.394;5.454;2023-04-24T15:41:25;13.30;72.70
26821;DHT22;37186;51.394;5.454;2023-04-24T15:44:26;13.50;72.70
26821;DHT22;37186;51.394;5.454;2023-04-24T15:47:26;13.60;72.20
26821;DHT22;37186;51.394;5.454;2023-04-24T15:50:27;13.60;71.60
26821;DHT22;37186;51.394;5.454;2023-04-24T15:53:28;13.70;73.30
26821;DHT22;37186;51.394;5.454;2023-04-24T15:56:29;13.80;72.30
26821;DHT22;37186;51.394;5.454;2023-04-24T15:59:29;13.90;72.20
26821;DHT22;37186;51.394;5.454;2023-04-24T16:02:30;14.00;72.30
26821;DHT22;37186;51.394;5.454;2023-04-24T16:05:30;14.10;72.20
26821;DHT22;37186;51.394;5.454;2023-04-24T16:08:31;14.20;72.50
26821;DHT22;37186;51.394;5.454;2023-04-24T16:11:32;14.20;71.60
26821;DHT22;37186;51.394;5.454;2023-04-24T16:14:36;14.40;71.00
26821;DHT22;37186;51.394;5.454;2023-04-24T16:17:37;14.50;71.40
26821;DHT22;37186;51.394;5.454;2023-04-24T16:20:37;14.50;71.70
26821;DHT22;37186;51.394;5.454;2023-04-24T16:23:38;14.70;72.10
26821;DHT22;37186;51.394;5.454;2023-04-24T16:26:39;14.70;71.80
26821;DHT22;37186;51.394;5.454;2023-04-24T16:29:39;14.70;71.20
26821;DHT22;37186;51.394;5.454;2023-04-24T16:32:40;14.70;70.60
26821;DHT22;37186;51.394;5.454;2023-04-24T16:35:40;14.70;68.90
26821;DHT22;37186;51.394;5.454;2023-04-24T16:38:42;14.60;68.10
26821;DHT22;37186;51.394;5.454;2023-04-24T16:41:42;14.50;68.20
26821;DHT22;37186;51.394;5.454;2023-04-24T16:44:43;14.40;68.80
26821;DHT22;37186;51.394;5.454;2023-04-24T16:47:44;14.40;67.70
26821;DHT22;37186;51.394;5.454;2023-04-24T16:50:44;14.30;68.80
26821;DHT22;37186;51.394;5.454;2023-04-24T16:53:47;14.30;67.60
26821;DHT22;37186;51.394;5.454;2023-04-24T16:56:48;14.20;68.80
26821;DHT22;37186;51.394;5.454;2023-04-24T16:59:48;14.20;69.30
26821;DHT22;37186;51.394;5.454;2023-04-24T17:02:49;14.20;69.10
26821;DHT22;37186;51.394;5.454;2023-04-24T17:05:50;14.20;69.20
26821;DHT22;37186;51.394;5.454;2023-04-24T17:08:50;14.10;69.30
26821;DHT22;37186;51.394;5.454;2023-04-24T17:11:51;14.00;69.40
26821;DHT22;37186;51.394;5.454;2023-04-24T17:14:51;14.00;69.10
26821;DHT22;37186;51.394;5.454;2023-04-24T17:17:52;14.00;69.60
26821;DHT22;37186;51.394;5.454;2023-04-24T17:20:53;14.00;69.60
26821;DHT22;37186;51.394;5.454;2023-04-24T17:23:53;13.90;69.00
26821;DHT22;37186;51.394;5.454;2023-04-24T17:26:54;13.90;69.40
26821;DHT22;37186;51.394;5.454;2023-04-24T17:29:55;13.90;69.80
26821;DHT22;37186;51.394;5.454;2023-04-24T17:32:56;13.90;69.70
26821;DHT22;37186;51.394;5.454;2023-04-24T17:35:57;13.90;69.90
26821;DHT22;37186;51.394;5.454;2023-04-24T17:38:58;13.90;67.10
26821;DHT22;37186;51.394;5.454;2023-04-24T17:41:58;13.90;68.40
26821;DHT22;37186;51.394;5.454;2023-04-24T17:44:59;13.80;68.80
26821;DHT22;37186;51.394;5.454;2023-04-24T17:47:59;13.80;68.10
26821;DHT22;37186;51.394;5.454;2023-04-24T17:51:00;13.70;68.60
26821;DHT22;37186;51.394;5.454;2023-04-24T17:54:00;13.80;69.00
26821;DHT22;37186;51.394;5.454;2023-04-24T17:57:01;13.80;68.50
26821;DHT22;37186;51.394;5.454;2023-04-24T18:00:02;13.70;68.80
26821;DHT22;37186;51.394;5.454;2023-04-24T18:03:05;13.60;69.30
26821;DHT22;37186;51.394;5.454;2023-04-24T18:06:06;13.60;68.70
26821;DHT22;37186;51.394;5.454;2023-04-24T18:09:07;13.60;68.80
26821;DHT22;37186;51.394;5.454;2023-04-24T18:12:07;13.60;69.10
26821;DHT22;37186;51.394;5.454;2023-04-24T18:15:08;13.50;69.20
26821;DHT22;37186;51.394;5.454;2023-04-24T18:18:10;13.50;69.20
26821;DHT22;37186;51.394;5.454;2023-04-24T18:21:10;13.40;69.40
26821;DHT22;37186;51.394;5.454;2023-04-24T18:24:11;13.40;69.30
26821;DHT22;37186;51.394;5.454;2023-04-24T18:27:11;13.40;68.80
26821;DHT22;37186;51.394;5.454;2023-04-24T18:30:12;13.30;69.20
26821;DHT22;37186;51.394;5.454;2023-04-24T18:33:13;13.30;69.40
26821;DHT22;37186;51.394;5.454;2023-04-24T18:36:13;13.30;69.40
26821;DHT22;37186;51.394;5.454;2023-04-24T18:39:14;13.20;69.20
26821;DHT22;37186;51.394;5.454;2023-04-24T18:42:15;13.20;68.70
26821;DHT22;37186;51.394;5.454;2023-04-24T18:45:16;13.10;69.20
26821;DHT22;37186;51.394;5.454;2023-04-24T18:48:16;13.10;69.20
26821;DHT22;37186;51.394;5.454;2023-04-24T18:51:17;13.00;69.00
26821;DHT22;37186;51.394;5.454;2023-04-24T18:54:18;13.00;69.00
26821;DHT22;37186;51.394;5.454;2023-04-24T18:57:18;12.90;68.90
26821;DHT22;37186;51.394;5.454;2023-04-24T19:00:19;12.90;68.80
26821;DHT22;37186;51.394;5.454;2023-04-24T19:03:19;12.80;69.30
26821;DHT22;37186;51.394;5.454;2023-04-24T19:06:20;12.80;69.40